createdAt,value
2022-08-25T00:00:03.465Z,0.00
2022-08-25T00:01:03.563Z,0.00
2022-08-25T00:02:03.155Z,0.00
2022-08-25T00:03:03.286Z,0.00
2022-08-25T00:04:02.583Z,0.00
2022-08-25T00:05:03.145Z,0.00
2022-08-25T00:06:03.037Z,0.00
2022-08-25T00:07:03.525Z,0.00
2022-08-25T00:08:03.064Z,0.00
2022-08-25T00:09:03.168Z,0.00
2022-08-25T00:10:03.549Z,0.00
2022-08-25T00:11:03.803Z,0.00
2022-08-25T00:12:02.619Z,0.00
2022-08-25T00:13:02.742Z,0.00
2022-08-25T00:14:02.726Z,0.00
2022-08-25T00:15:02.720Z,0.00
2022-08-25T00:16:03.058Z,0.00
2022-08-25T00:17:02.793Z,0.00
2022-08-25T00:18:02.855Z,0.00
2022-08-25T00:19:02.861Z,0.00
2022-08-25T00:20:02.758Z,0.00
2022-08-25T00:21:02.852Z,0.00
2022-08-25T00:22:03.434Z,0.00
2022-08-25T00:23:03.669Z,0.00
2022-08-25T00:24:03.582Z,0.00
2022-08-25T00:25:03.465Z,0.00
2022-08-25T00:26:03.575Z,0.00
2022-08-25T00:27:02.796Z,0.00
2022-08-25T00:28:06.508Z,0.00
2022-08-25T00:29:02.882Z,0.00
2022-08-25T00:30:02.676Z,0.00
2022-08-25T00:31:02.626Z,0.00
2022-08-25T00:32:03.290Z,0.00
2022-08-25T00:33:03.199Z,0.00
2022-08-25T00:34:03.719Z,0.00
2022-08-25T00:35:03.449Z,0.00
2022-08-25T00:36:03.133Z,0.00
2022-08-25T00:37:02.807Z,0.00
2022-08-25T00:38:02.700Z,0.00
2022-08-25T00:39:02.679Z,0.00
2022-08-25T00:40:02.599Z,0.00
2022-08-25T00:41:02.690Z,0.00
2022-08-25T00:42:03.052Z,0.00
2022-08-25T00:43:03.671Z,0.00
2022-08-25T00:44:03.322Z,0.00
2022-08-25T00:45:03.568Z,0.00
2022-08-25T00:46:03.470Z,0.00
2022-08-25T00:47:03.415Z,0.00
2022-08-25T00:48:03.593Z,0.00
2022-08-25T00:49:03.396Z,0.00
2022-08-25T00:50:03.226Z,0.00
2022-08-25T00:51:03.401Z,0.00
2022-08-25T00:52:02.988Z,0.00
2022-08-25T00:53:03.240Z,0.00
2022-08-25T00:54:02.851Z,0.00
2022-08-25T00:55:08.287Z,0.00
2022-08-25T00:56:02.863Z,0.00
2022-08-25T00:57:03.335Z,0.00
2022-08-25T00:58:03.596Z,0.00
2022-08-25T00:59:03.367Z,0.00
2022-08-25T01:00:03.459Z,0.00
2022-08-25T01:01:03.549Z,0.00
2022-08-25T01:02:03.200Z,0.00
2022-08-25T01:03:03.481Z,0.00
2022-08-25T01:04:03.285Z,0.00
2022-08-25T01:05:03.230Z,0.00
2022-08-25T01:06:03.139Z,0.00
2022-08-25T01:07:02.807Z,0.00
2022-08-25T01:08:02.603Z,0.00
2022-08-25T01:09:02.863Z,0.00
2022-08-25T01:10:02.698Z,0.00
2022-08-25T01:11:02.577Z,0.00
2022-08-25T01:12:03.051Z,0.00
2022-08-25T01:13:03.340Z,0.00
2022-08-25T01:14:03.093Z,0.00
2022-08-25T01:15:02.734Z,0.00
2022-08-25T01:16:03.172Z,0.00
2022-08-25T01:17:02.861Z,0.00
2022-08-25T01:18:02.767Z,0.00
2022-08-25T01:19:02.571Z,0.00
2022-08-25T01:20:02.500Z,0.00
2022-08-25T01:21:03.061Z,0.00
2022-08-25T01:22:03.220Z,0.00
2022-08-25T01:23:03.062Z,0.00
2022-08-25T01:24:03.041Z,0.00
2022-08-25T01:25:02.953Z,0.00
2022-08-25T01:26:03.558Z,0.00
2022-08-25T01:27:02.971Z,0.00
2022-08-25T01:28:03.158Z,0.00
2022-08-25T01:29:02.910Z,0.00
2022-08-25T01:30:02.845Z,0.00
2022-08-25T01:31:02.532Z,0.00
2022-08-25T01:32:03.182Z,0.00
2022-08-25T01:33:02.946Z,0.00
2022-08-25T01:34:02.894Z,0.00
2022-08-25T01:35:02.827Z,0.00
2022-08-25T01:36:03.272Z,0.00
2022-08-25T01:37:03.466Z,0.00
2022-08-25T01:38:03.421Z,0.00
2022-08-25T01:39:03.573Z,0.00
2022-08-25T01:40:03.586Z,0.00
2022-08-25T01:41:03.264Z,0.00
2022-08-25T01:42:03.869Z,0.00
2022-08-25T01:43:03.750Z,0.00
2022-08-25T01:44:03.661Z,0.00
2022-08-25T01:45:03.524Z,0.00
2022-08-25T01:46:03.438Z,0.00
2022-08-25T01:47:03.122Z,0.00
2022-08-25T01:48:03.108Z,0.00
2022-08-25T01:49:06.708Z,0.00
2022-08-25T01:50:02.635Z,0.00
2022-08-25T01:51:02.580Z,0.00
2022-08-25T01:52:03.262Z,0.00
2022-08-25T01:53:02.978Z,0.00
2022-08-25T01:54:02.921Z,0.00
2022-08-25T01:55:02.814Z,0.00
2022-08-25T01:56:03.810Z,0.00
2022-08-25T01:57:03.347Z,0.00
2022-08-25T01:58:03.332Z,0.00
2022-08-25T01:59:03.331Z,0.00
2022-08-25T02:00:03.043Z,0.00
2022-08-25T02:01:03.038Z,0.00
2022-08-25T02:02:04.870Z,0.00
2022-08-25T02:03:02.659Z,0.00
2022-08-25T02:04:02.601Z,0.00
2022-08-25T02:05:02.514Z,0.00
2022-08-25T02:06:04.208Z,0.00
2022-08-25T02:07:02.691Z,0.00
2022-08-25T02:08:03.359Z,0.00
2022-08-25T02:09:03.167Z,0.00
2022-08-25T02:10:03.460Z,0.00
2022-08-25T02:11:02.704Z,0.00
2022-08-25T02:12:02.408Z,0.00
2022-08-25T02:13:02.681Z,0.00
2022-08-25T02:14:02.542Z,0.00
2022-08-25T02:15:02.481Z,0.00
2022-08-25T02:16:02.911Z,0.00
2022-08-25T02:17:02.922Z,0.00
2022-08-25T02:18:02.915Z,0.00
2022-08-25T02:19:03.361Z,0.00
2022-08-25T02:20:03.472Z,0.00
2022-08-25T02:21:03.269Z,0.00
2022-08-25T02:22:02.275Z,0.00
2022-08-25T02:23:02.205Z,0.00
2022-08-25T02:24:02.844Z,0.00
2022-08-25T02:25:02.879Z,0.00
2022-08-25T02:26:02.300Z,0.00
2022-08-25T02:27:02.917Z,0.00
2022-08-25T02:28:02.860Z,0.00
2022-08-25T02:29:03.502Z,0.00
2022-08-25T02:30:03.051Z,0.00
2022-08-25T02:31:03.053Z,0.00
2022-08-25T02:32:02.075Z,0.00
2022-08-25T02:33:02.056Z,0.00
2022-08-25T02:34:02.354Z,0.00
2022-08-25T02:35:02.153Z,0.00
2022-08-25T02:36:02.437Z,0.00
2022-08-25T02:37:02.361Z,0.00
2022-08-25T02:38:03.040Z,0.00
2022-08-25T02:39:02.516Z,0.00
2022-08-25T02:40:02.561Z,0.00
2022-08-25T02:41:02.548Z,0.00
2022-08-25T02:42:03.467Z,0.00
2022-08-25T02:43:03.452Z,0.00
2022-08-25T02:44:03.338Z,0.00
2022-08-25T02:45:03.262Z,0.00
2022-08-25T02:46:03.659Z,0.00
2022-08-25T02:47:02.433Z,0.00
2022-08-25T02:48:02.283Z,0.00
2022-08-25T02:49:02.238Z,0.00
2022-08-25T02:50:02.651Z,0.00
2022-08-25T02:51:02.580Z,0.00
2022-08-25T02:52:02.482Z,0.00
2022-08-25T02:53:02.318Z,0.00
2022-08-25T02:54:02.919Z,0.00
2022-08-25T02:55:02.613Z,0.00
2022-08-25T02:56:02.514Z,0.00
2022-08-25T02:57:02.595Z,0.00
2022-08-25T02:58:02.716Z,0.00
2022-08-25T02:59:02.825Z,0.00
2022-08-25T03:00:02.922Z,0.00
2022-08-25T03:01:03.063Z,0.00
2022-08-25T03:02:02.799Z,0.00
2022-08-25T03:03:02.751Z,0.00
2022-08-25T03:04:02.884Z,0.00
2022-08-25T03:05:02.918Z,0.00
2022-08-25T03:06:02.940Z,0.00
2022-08-25T03:07:01.974Z,0.00
2022-08-25T03:08:01.927Z,0.00
2022-08-25T03:09:01.942Z,0.00
2022-08-25T03:10:01.881Z,0.00
2022-08-25T03:11:01.811Z,0.00
2022-08-25T03:12:02.400Z,0.00
2022-08-25T03:13:02.391Z,0.00
2022-08-25T03:14:02.190Z,0.00
2022-08-25T03:15:02.838Z,0.00
2022-08-25T03:16:02.926Z,0.00
2022-08-25T03:17:02.879Z,0.00
2022-08-25T03:18:03.144Z,0.00
2022-08-25T03:19:02.564Z,0.00
2022-08-25T03:20:02.649Z,0.00
2022-08-25T03:21:02.609Z,0.00
2022-08-25T03:22:02.256Z,0.00
2022-08-25T03:23:02.582Z,0.00
2022-08-25T03:24:02.311Z,0.00
2022-08-25T03:25:02.230Z,0.00
2022-08-25T03:26:02.437Z,0.00
2022-08-25T03:27:02.392Z,0.00
2022-08-25T03:28:02.436Z,0.00
2022-08-25T03:29:02.458Z,0.00
2022-08-25T03:30:02.098Z,0.00
2022-08-25T03:31:02.636Z,0.00
2022-08-25T03:32:02.509Z,0.00
2022-08-25T03:33:02.312Z,0.00
2022-08-25T03:34:02.809Z,0.00
2022-08-25T03:35:02.498Z,0.00
2022-08-25T03:36:02.733Z,0.00
2022-08-25T03:37:02.313Z,0.00
2022-08-25T03:38:02.451Z,0.00
2022-08-25T03:39:02.504Z,0.00
2022-08-25T03:40:02.507Z,0.00
2022-08-25T03:41:02.296Z,0.00
2022-08-25T03:42:02.411Z,0.00
2022-08-25T03:43:02.322Z,0.00
2022-08-25T03:44:02.162Z,0.00
2022-08-25T03:45:02.117Z,0.00
2022-08-25T03:46:02.754Z,0.00
2022-08-25T03:47:02.457Z,0.00
2022-08-25T03:48:02.374Z,0.00
2022-08-25T03:49:02.770Z,0.00
2022-08-25T03:50:02.514Z,0.00
2022-08-25T03:51:02.396Z,0.00
2022-08-25T03:52:03.052Z,0.00
2022-08-25T03:53:02.976Z,0.00
2022-08-25T03:54:02.978Z,0.00
2022-08-25T03:55:02.949Z,0.00
2022-08-25T03:56:03.144Z,0.00
2022-08-25T03:57:02.527Z,0.00
2022-08-25T03:58:02.644Z,4.00
2022-08-25T03:59:02.544Z,4.00
2022-08-25T04:00:02.598Z,0.00
2022-08-25T04:01:02.767Z,0.00
2022-08-25T04:02:03.177Z,4.00
2022-08-25T04:03:03.052Z,0.00
2022-08-25T04:04:02.933Z,4.00
2022-08-25T04:05:02.796Z,4.00
2022-08-25T04:06:02.846Z,4.00
2022-08-25T04:07:03.527Z,4.00
2022-08-25T04:08:03.672Z,8.00
2022-08-25T04:09:03.561Z,8.00
2022-08-25T04:10:03.543Z,8.00
2022-08-25T04:11:03.451Z,12.00
2022-08-25T04:12:03.181Z,12.00
2022-08-25T04:13:03.092Z,16.00
2022-08-25T04:14:03.114Z,20.00
2022-08-25T04:15:03.134Z,20.00
2022-08-25T04:16:03.079Z,24.00
2022-08-25T04:17:03.833Z,28.00
2022-08-25T04:18:03.933Z,36.00
2022-08-25T04:19:03.828Z,44.00
2022-08-25T04:20:03.326Z,48.00
2022-08-25T04:21:03.360Z,56.00
2022-08-25T04:22:03.233Z,60.00
2022-08-25T04:23:03.307Z,68.00
2022-08-25T04:24:02.996Z,80.00
2022-08-25T04:25:03.268Z,92.00
2022-08-25T04:26:03.049Z,100.00
2022-08-25T04:27:03.470Z,112.00
2022-08-25T04:28:03.119Z,128.00
2022-08-25T04:29:03.046Z,140.00
2022-08-25T04:30:03.232Z,152.00
2022-08-25T04:31:03.305Z,172.00
2022-08-25T04:32:03.154Z,188.00
2022-08-25T04:33:02.500Z,208.00
2022-08-25T04:34:02.526Z,224.00
2022-08-25T04:35:02.530Z,248.00
2022-08-25T04:36:02.615Z,268.00
2022-08-25T04:37:03.358Z,292.00
2022-08-25T04:38:03.161Z,316.00
2022-08-25T04:39:02.722Z,344.00
2022-08-25T04:40:02.845Z,368.00
2022-08-25T04:41:02.959Z,396.00
2022-08-25T04:42:03.468Z,420.00
2022-08-25T04:43:03.520Z,452.00
2022-08-25T04:44:03.199Z,484.00
2022-08-25T04:45:03.211Z,512.00
2022-08-25T04:46:03.717Z,544.00
2022-08-25T04:47:03.292Z,576.00
2022-08-25T04:48:03.064Z,608.00
2022-08-25T04:49:03.178Z,644.00
2022-08-25T04:50:03.276Z,676.00
2022-08-25T04:51:02.684Z,708.00
2022-08-25T04:52:03.385Z,744.00
2022-08-25T04:53:03.208Z,780.00
2022-08-25T04:54:03.285Z,820.00
2022-08-25T04:55:03.296Z,856.00
2022-08-25T04:56:03.982Z,888.00
2022-08-25T04:57:03.520Z,928.00
2022-08-25T04:58:03.011Z,964.00
2022-08-25T04:59:03.135Z,996.00
2022-08-25T05:00:03.223Z,1032.00
2022-08-25T05:01:02.920Z,1064.00
2022-08-25T05:02:02.850Z,1100.00
2022-08-25T05:03:02.167Z,1136.00
2022-08-25T05:04:02.125Z,1164.00
2022-08-25T05:05:02.149Z,1196.00
2022-08-25T05:06:02.120Z,1232.00
2022-08-25T05:07:02.212Z,1264.00
2022-08-25T05:08:02.849Z,1296.00
2022-08-25T05:09:02.782Z,1332.00
2022-08-25T05:10:02.617Z,1360.00
2022-08-25T05:11:02.268Z,1392.00
2022-08-25T05:12:02.898Z,1428.00
2022-08-25T05:13:02.431Z,1464.00
2022-08-25T05:14:02.389Z,1488.00
2022-08-25T05:15:02.496Z,1520.00
2022-08-25T05:16:02.992Z,1552.00
2022-08-25T05:17:02.315Z,1580.00
2022-08-25T05:18:02.185Z,1608.00
2022-08-25T05:19:01.949Z,1636.00
2022-08-25T05:20:01.844Z,1664.00
2022-08-25T05:21:02.236Z,1688.00
2022-08-25T05:22:02.352Z,1716.00
2022-08-25T05:23:02.544Z,1740.00
2022-08-25T05:24:02.758Z,1776.00
2022-08-25T05:25:02.908Z,1796.00
2022-08-25T05:26:02.710Z,1816.00
2022-08-25T05:27:02.470Z,1840.00
2022-08-25T05:28:02.843Z,1860.00
2022-08-25T05:29:02.361Z,1892.00
2022-08-25T05:30:02.909Z,1908.00
2022-08-25T05:31:02.969Z,1932.00
2022-08-25T05:32:01.809Z,1952.00
2022-08-25T05:33:01.894Z,1980.00
2022-08-25T05:34:02.040Z,2004.00
2022-08-25T05:35:01.722Z,2028.00
2022-08-25T05:36:01.859Z,2052.00
2022-08-25T05:37:02.511Z,2068.00
2022-08-25T05:38:02.591Z,2092.00
2022-08-25T05:39:02.733Z,2116.00
2022-08-25T05:40:02.911Z,2144.00
2022-08-25T05:41:02.743Z,2188.00
2022-08-25T05:42:02.244Z,2668.00
2022-08-25T05:43:01.903Z,3608.00
2022-08-25T05:44:01.622Z,4112.00
2022-08-25T05:45:02.294Z,4104.00
2022-08-25T05:46:02.222Z,3992.00
2022-08-25T05:47:02.173Z,3852.00
2022-08-25T05:48:02.474Z,3744.00
2022-08-25T05:49:02.369Z,3780.00
2022-08-25T05:50:02.076Z,3860.00
2022-08-25T05:51:02.553Z,3976.00
2022-08-25T05:52:02.454Z,4116.00
2022-08-25T05:53:02.737Z,4288.00
2022-08-25T05:54:02.661Z,4520.00
2022-08-25T05:55:02.753Z,5000.00
2022-08-25T05:56:02.321Z,6016.00
2022-08-25T05:57:01.896Z,7004.00
2022-08-25T05:58:02.086Z,7316.00
2022-08-25T05:59:06.099Z,6888.00
2022-08-25T06:00:02.515Z,6540.00
2022-08-25T06:01:02.578Z,6568.00
2022-08-25T06:02:03.464Z,6772.00
2022-08-25T06:03:03.553Z,6956.00
2022-08-25T06:04:03.644Z,7148.00
2022-08-25T06:05:04.092Z,7252.00
2022-08-25T06:06:03.217Z,7316.00
2022-08-25T06:07:02.967Z,7440.00
2022-08-25T06:08:03.098Z,7568.00
2022-08-25T06:09:03.102Z,7604.00
2022-08-25T06:10:03.342Z,7720.00
2022-08-25T06:11:03.232Z,7828.00
2022-08-25T06:12:03.364Z,7944.00
2022-08-25T06:13:03.409Z,8140.00
2022-08-25T06:14:03.439Z,8280.00
2022-08-25T06:15:03.502Z,8372.00
2022-08-25T06:16:03.669Z,8516.00
2022-08-25T06:17:03.785Z,8640.00
2022-08-25T06:18:03.551Z,8744.00
2022-08-25T06:19:03.640Z,8864.00
2022-08-25T06:20:03.835Z,8992.00
2022-08-25T06:21:03.822Z,9156.00
2022-08-25T06:22:03.302Z,9300.00
2022-08-25T06:23:03.366Z,9436.00
2022-08-25T06:24:03.486Z,9600.00
2022-08-25T06:25:03.132Z,9752.00
2022-08-25T06:26:03.376Z,9924.00
2022-08-25T06:27:02.890Z,10032.00
2022-08-25T06:28:03.040Z,10188.00
2022-08-25T06:29:02.654Z,10384.00
2022-08-25T06:30:08.035Z,10548.00
2022-08-25T06:31:03.034Z,10712.00
2022-08-25T06:32:02.946Z,10848.00
2022-08-25T06:33:03.342Z,11088.00
2022-08-25T06:34:02.760Z,11244.00
2022-08-25T06:35:02.781Z,11416.00
2022-08-25T06:36:02.839Z,11692.00
2022-08-25T06:37:03.680Z,11952.00
2022-08-25T06:38:03.809Z,12152.00
2022-08-25T06:39:03.460Z,12408.00
2022-08-25T06:40:03.464Z,12588.00
2022-08-25T06:41:03.507Z,12844.00
2022-08-25T06:42:02.967Z,13312.00
2022-08-25T06:43:03.476Z,13792.00
2022-08-25T06:44:05.441Z,14304.00
2022-08-25T06:45:03.395Z,14976.00
2022-08-25T06:46:03.410Z,15648.00
2022-08-25T06:47:03.622Z,16352.00
2022-08-25T06:48:03.349Z,17152.00
2022-08-25T06:49:03.422Z,18176.00
2022-08-25T06:50:03.421Z,19264.00
2022-08-25T06:51:03.471Z,19904.00
2022-08-25T06:52:03.330Z,20160.00
2022-08-25T06:53:03.513Z,20000.00
2022-08-25T06:54:03.472Z,18944.00
2022-08-25T06:55:03.333Z,18016.00
2022-08-25T06:56:06.525Z,17056.00
2022-08-25T06:57:03.890Z,15840.00
2022-08-25T06:58:04.897Z,15840.00
2022-08-25T06:59:03.486Z,15456.00
2022-08-25T07:00:04.011Z,15200.00
2022-08-25T07:01:04.126Z,15296.00
2022-08-25T07:02:03.716Z,14848.00
2022-08-25T07:03:02.880Z,14784.00
2022-08-25T07:04:02.869Z,14656.00
2022-08-25T07:05:03.148Z,14784.00
2022-08-25T07:06:03.319Z,14816.00
2022-08-25T07:07:03.231Z,14656.00
2022-08-25T07:08:03.159Z,13224.00
2022-08-25T07:09:02.820Z,14624.00
2022-08-25T07:10:03.004Z,14944.00
2022-08-25T07:11:03.172Z,14880.00
2022-08-25T07:12:03.458Z,14528.00
2022-08-25T07:13:03.065Z,15040.00
2022-08-25T07:14:03.465Z,15008.00
2022-08-25T07:15:19.454Z,15040.00
2022-08-25T07:16:02.908Z,15168.00
2022-08-25T07:17:02.939Z,15200.00
2022-08-25T07:18:02.628Z,15328.00
2022-08-25T07:19:02.701Z,15392.00
2022-08-25T07:20:02.712Z,15488.00
2022-08-25T07:21:02.945Z,15552.00
2022-08-25T07:22:03.050Z,15616.00
2022-08-25T07:23:02.818Z,15744.00
2022-08-25T07:24:02.872Z,15808.00
2022-08-25T07:25:02.919Z,15840.00
2022-08-25T07:26:08.140Z,16000.00
2022-08-25T07:27:03.095Z,16096.00
2022-08-25T07:28:02.662Z,16160.00
2022-08-25T07:29:03.058Z,16256.00
2022-08-25T07:30:04.372Z,16416.00
2022-08-25T07:31:03.179Z,16480.00
2022-08-25T07:32:02.775Z,16640.00
2022-08-25T07:33:06.758Z,16640.00
2022-08-25T07:34:02.151Z,16800.00
2022-08-25T07:35:02.682Z,16864.00
2022-08-25T07:36:02.549Z,16928.00
2022-08-25T07:37:03.308Z,17056.00
2022-08-25T07:38:03.217Z,17120.00
2022-08-25T07:39:03.112Z,17216.00
2022-08-25T07:40:02.843Z,17376.00
2022-08-25T07:41:02.882Z,17376.00
2022-08-25T07:42:02.099Z,17536.00
2022-08-25T07:43:02.504Z,17600.00
2022-08-25T07:44:02.586Z,17696.00
2022-08-25T07:45:02.687Z,17920.00
2022-08-25T07:46:02.553Z,17952.00
2022-08-25T07:47:02.791Z,18080.00
2022-08-25T07:48:02.976Z,18144.00
2022-08-25T07:49:03.108Z,18176.00
2022-08-25T07:50:03.245Z,18304.00
2022-08-25T07:51:05.526Z,18368.00
2022-08-25T07:52:05.318Z,18496.00
2022-08-25T07:53:02.662Z,18592.00
2022-08-25T07:54:02.817Z,18688.00
2022-08-25T07:55:02.959Z,18784.00
2022-08-25T07:57:03.185Z,18944.00
2022-08-25T07:58:03.495Z,19008.00
2022-08-25T07:59:03.497Z,19168.00
2022-08-25T08:00:03.631Z,19232.00
2022-08-25T08:01:03.246Z,19360.00
2022-08-25T08:02:02.347Z,19424.00
2022-08-25T08:03:03.767Z,19552.00
2022-08-25T08:04:03.662Z,19552.00
2022-08-25T08:05:02.471Z,19712.00
2022-08-25T08:06:02.569Z,19744.00
2022-08-25T08:07:02.722Z,19968.00
2022-08-25T08:08:02.822Z,19968.00
2022-08-25T08:09:03.104Z,20096.00
2022-08-25T08:10:29.661Z,20128.00
2022-08-25T08:11:04.727Z,20288.00
2022-08-25T08:12:02.080Z,20288.00
2022-08-25T08:13:02.196Z,20448.00
2022-08-25T08:14:02.511Z,20544.00
2022-08-25T08:15:02.437Z,20640.00
2022-08-25T08:16:02.562Z,20704.00
2022-08-25T08:17:02.505Z,20768.00
2022-08-25T08:18:03.102Z,20960.00
2022-08-25T08:19:02.341Z,20960.00
2022-08-25T08:20:03.010Z,21088.00
2022-08-25T08:21:02.890Z,21216.00
2022-08-25T08:22:02.841Z,21312.00
2022-08-25T08:23:03.351Z,21376.00
2022-08-25T08:24:05.073Z,21472.00
2022-08-25T08:25:03.261Z,21504.00
2022-08-25T08:26:03.379Z,21600.00
2022-08-25T08:27:02.306Z,21664.00
2022-08-25T08:28:02.575Z,21728.00
2022-08-25T08:29:02.629Z,21824.00
2022-08-25T08:30:02.747Z,21920.00
2022-08-25T08:31:02.258Z,21984.00
2022-08-25T08:32:03.005Z,22080.00
2022-08-25T08:33:12.023Z,22304.00
2022-08-25T08:34:03.486Z,22272.00
2022-08-25T08:35:03.447Z,22400.00
2022-08-25T08:36:05.166Z,22496.00
2022-08-25T08:37:02.549Z,22528.00
2022-08-25T08:38:02.970Z,22720.00
2022-08-25T08:39:02.841Z,22720.00
2022-08-25T08:40:03.326Z,22912.00
2022-08-25T08:41:02.974Z,22848.00
2022-08-25T08:42:11.177Z,22912.00
2022-08-25T08:43:03.068Z,23104.00
2022-08-25T08:44:03.301Z,23168.00
2022-08-25T08:45:02.996Z,23200.00
2022-08-25T08:46:02.757Z,23296.00
2022-08-25T08:47:02.662Z,23456.00
2022-08-25T08:48:03.049Z,23488.00
2022-08-25T08:49:02.804Z,23648.00
2022-08-25T08:50:03.853Z,23680.00
2022-08-25T08:51:02.814Z,23744.00
2022-08-25T08:52:02.965Z,23968.00
2022-08-25T08:53:03.219Z,23968.00
2022-08-25T08:54:03.338Z,24096.00
2022-08-25T08:55:05.636Z,24096.00
2022-08-25T08:56:02.920Z,24192.00
2022-08-25T08:57:02.710Z,24224.00
2022-08-25T08:58:02.895Z,24192.00
2022-08-25T08:59:06.376Z,24224.00
2022-08-25T09:00:02.708Z,24448.00
2022-08-25T09:01:02.866Z,24480.00
2022-08-25T09:02:02.162Z,24608.00
2022-08-25T09:03:02.091Z,24736.00
2022-08-25T09:04:02.232Z,24640.00
2022-08-25T09:05:01.695Z,24640.00
2022-08-25T09:06:01.932Z,24864.00
2022-08-25T09:07:02.370Z,24800.00
2022-08-25T09:08:02.358Z,24992.00
2022-08-25T09:09:02.537Z,24800.00
2022-08-25T09:10:02.320Z,25120.00
2022-08-25T09:11:02.438Z,25120.00
2022-08-25T09:12:02.121Z,25152.00
2022-08-25T09:13:02.004Z,25248.00
2022-08-25T09:14:02.175Z,25248.00
2022-08-25T09:15:02.343Z,25280.00
2022-08-25T09:16:02.278Z,25312.00
2022-08-25T09:17:02.183Z,25248.00
2022-08-25T09:18:02.097Z,25408.00
2022-08-25T09:19:01.897Z,25472.00
2022-08-25T09:20:01.988Z,25504.00
2022-08-25T09:21:02.163Z,25632.00
2022-08-25T09:22:02.267Z,25664.00
2022-08-25T09:23:02.458Z,25696.00
2022-08-25T09:24:02.136Z,25728.00
2022-08-25T09:25:04.370Z,25696.00
2022-08-25T09:26:02.128Z,25920.00
2022-08-25T09:27:02.968Z,26112.00
2022-08-25T09:28:02.700Z,26112.00
2022-08-25T09:29:03.154Z,26048.00
2022-08-25T09:30:05.237Z,26080.00
2022-08-25T09:31:03.201Z,26048.00
2022-08-25T09:32:02.428Z,26144.00
2022-08-25T09:33:02.210Z,26176.00
2022-08-25T09:34:02.407Z,26304.00
2022-08-25T09:35:02.067Z,26272.00
2022-08-25T09:36:04.613Z,26336.00
2022-08-25T09:37:02.931Z,26368.00
2022-08-25T09:38:02.930Z,26432.00
2022-08-25T09:39:02.991Z,26496.00
2022-08-25T09:40:02.922Z,26496.00
2022-08-25T09:41:02.956Z,26816.00
2022-08-25T09:42:02.620Z,26624.00
2022-08-25T09:43:02.350Z,26656.00
2022-08-25T09:44:02.306Z,27008.00
2022-08-25T09:45:02.488Z,26848.00
2022-08-25T09:46:02.298Z,26976.00
2022-08-25T09:47:03.113Z,27008.00
2022-08-25T09:48:02.931Z,27168.00
2022-08-25T09:49:02.915Z,27296.00
2022-08-25T09:50:05.248Z,27264.00
2022-08-25T09:51:03.317Z,27264.00
2022-08-25T09:52:02.672Z,27328.00
2022-08-25T09:53:02.462Z,27424.00
2022-08-25T09:54:02.212Z,27456.00
2022-08-25T09:55:02.345Z,27648.00
2022-08-25T09:56:02.770Z,27552.00
2022-08-25T09:57:03.227Z,27904.00
2022-08-25T09:58:03.220Z,27776.00
2022-08-25T09:59:03.271Z,27232.00
2022-08-25T10:00:03.061Z,27168.00
2022-08-25T10:01:02.952Z,27264.00
2022-08-25T10:02:02.197Z,27200.00
2022-08-25T10:03:05.918Z,27360.00
2022-08-25T10:04:02.354Z,27296.00
2022-08-25T10:05:02.636Z,27328.00
2022-08-25T10:06:02.831Z,27328.00
2022-08-25T10:07:02.425Z,27392.00
2022-08-25T10:08:02.756Z,27584.00
2022-08-25T10:09:02.899Z,27648.00
2022-08-25T10:10:03.071Z,27488.00
2022-08-25T10:11:02.981Z,27456.00
2022-08-25T10:12:02.860Z,27072.00
2022-08-25T10:13:03.101Z,27232.00
2022-08-25T10:14:03.336Z,28000.00
2022-08-25T10:15:03.452Z,27008.00
2022-08-25T10:16:03.429Z,27456.00
2022-08-25T10:17:03.491Z,27488.00
2022-08-25T10:18:02.663Z,27264.00
2022-08-25T10:19:03.087Z,26848.00
2022-08-25T10:20:02.740Z,26688.00
2022-08-25T10:21:02.906Z,26080.00
2022-08-25T10:22:03.199Z,25760.00
2022-08-25T10:23:03.124Z,25600.00
2022-08-25T10:24:02.419Z,25824.00
2022-08-25T10:25:04.649Z,25728.00
2022-08-25T10:26:03.621Z,25568.00
2022-08-25T10:27:02.828Z,25376.00
2022-08-25T10:28:02.754Z,24160.00
2022-08-25T10:29:02.967Z,23008.00
2022-08-25T10:30:03.120Z,23680.00
2022-08-25T10:31:02.627Z,25824.00
2022-08-25T10:32:02.854Z,25280.00
2022-08-25T10:33:02.644Z,20864.00
2022-08-25T10:34:02.522Z,23456.00
2022-08-25T10:35:02.592Z,15872.00
2022-08-25T10:36:02.760Z,16160.00
2022-08-25T10:37:02.765Z,16448.00
2022-08-25T10:38:02.671Z,13296.00
2022-08-25T10:39:02.874Z,13396.00
2022-08-25T10:40:03.117Z,12912.00
2022-08-25T10:41:02.595Z,8676.00
2022-08-25T10:42:02.898Z,12172.00
2022-08-25T10:43:03.208Z,11248.00
2022-08-25T10:44:03.198Z,8448.00
2022-08-25T10:45:03.229Z,9016.00
2022-08-25T10:46:03.133Z,9016.00
2022-08-25T10:47:03.116Z,8684.00
2022-08-25T10:48:03.790Z,9708.00
2022-08-25T10:49:03.614Z,8500.00
2022-08-25T10:50:03.464Z,8036.00
2022-08-25T10:51:03.288Z,7776.00
2022-08-25T10:52:03.454Z,7612.00
2022-08-25T10:53:03.168Z,7204.00
2022-08-25T10:54:02.787Z,7188.00
2022-08-25T10:55:03.443Z,6972.00
2022-08-25T10:56:03.339Z,6724.00
2022-08-25T10:57:03.424Z,6704.00
2022-08-25T10:58:03.121Z,6776.00
2022-08-25T10:59:03.337Z,6988.00
2022-08-25T11:00:03.426Z,7068.00
2022-08-25T11:01:03.226Z,7164.00
2022-08-25T11:02:03.521Z,6996.00
2022-08-25T11:03:03.840Z,6952.00
2022-08-25T11:04:03.301Z,7060.00
2022-08-25T11:05:03.512Z,6404.00
2022-08-25T11:06:03.251Z,7736.00
2022-08-25T11:07:03.647Z,6636.00
2022-08-25T11:08:03.255Z,7300.00
2022-08-25T11:09:03.372Z,6144.00
2022-08-25T11:10:03.559Z,8828.00
2022-08-25T11:11:03.198Z,6664.00
2022-08-25T11:12:03.325Z,8980.00
2022-08-25T11:13:02.781Z,8896.00
2022-08-25T11:14:06.381Z,8604.00
2022-08-25T11:15:03.150Z,9388.00
2022-08-25T11:16:18.895Z,7960.00
2022-08-25T11:17:03.308Z,8188.00
2022-08-25T11:18:03.715Z,10920.00
2022-08-25T11:19:05.426Z,15520.00
2022-08-25T11:20:03.357Z,17344.00
2022-08-25T11:21:03.474Z,17536.00
2022-08-25T11:22:03.581Z,18400.00
2022-08-25T11:23:02.840Z,19040.00
2022-08-25T11:24:02.967Z,18912.00
2022-08-25T11:25:03.615Z,19776.00
2022-08-25T11:26:03.395Z,17952.00
2022-08-25T11:27:03.297Z,20576.00
2022-08-25T11:28:04.150Z,20160.00
2022-08-25T11:29:03.704Z,20224.00
2022-08-25T11:30:05.928Z,17728.00
2022-08-25T11:31:04.024Z,20800.00
2022-08-25T11:32:04.094Z,20992.00
2022-08-25T11:33:03.594Z,21120.00
2022-08-25T11:34:03.197Z,21440.00
2022-08-25T11:35:03.338Z,20928.00
2022-08-25T11:36:03.474Z,20640.00
2022-08-25T11:37:03.695Z,20160.00
2022-08-25T11:38:02.898Z,19712.00
2022-08-25T11:39:03.108Z,18880.00
2022-08-25T11:40:03.233Z,18880.00
2022-08-25T11:41:03.342Z,18656.00
2022-08-25T11:42:03.230Z,18752.00
2022-08-25T11:43:03.443Z,18592.00
2022-08-25T11:44:03.618Z,16128.00
2022-08-25T11:45:03.818Z,16032.00
2022-08-25T11:46:03.930Z,17408.00
2022-08-25T11:47:03.913Z,17536.00
2022-08-25T11:48:03.211Z,15712.00
2022-08-25T11:49:03.482Z,16128.00
2022-08-25T11:50:03.068Z,15680.00
2022-08-25T11:51:03.259Z,15424.00
2022-08-25T11:52:03.539Z,12640.00
2022-08-25T11:53:03.564Z,14036.00
2022-08-25T11:54:03.819Z,11816.00
2022-08-25T11:55:03.448Z,13688.00
2022-08-25T11:56:03.556Z,13432.00
2022-08-25T11:57:03.757Z,13476.00
2022-08-25T11:58:04.101Z,13280.00
2022-08-25T11:59:03.779Z,11768.00
2022-08-25T12:00:03.736Z,12148.00
2022-08-25T12:01:04.059Z,10828.00
2022-08-25T12:02:04.193Z,10968.00
2022-08-25T12:03:02.522Z,10796.00
2022-08-25T12:04:02.396Z,10624.00
2022-08-25T12:05:02.538Z,9932.00
2022-08-25T12:06:02.583Z,9512.00
2022-08-25T12:07:02.245Z,9324.00
2022-08-25T12:08:02.987Z,8528.00
2022-08-25T12:09:03.092Z,8156.00
2022-08-25T12:10:03.155Z,10696.00
2022-08-25T12:11:04.332Z,7972.00
2022-08-25T12:12:02.777Z,6972.00
2022-08-25T12:13:02.906Z,7524.00
2022-08-25T12:14:03.089Z,7624.00
2022-08-25T12:15:03.262Z,7464.00
2022-08-25T12:16:03.276Z,7256.00
2022-08-25T12:17:03.278Z,7372.00
2022-08-25T12:18:06.821Z,7360.00
2022-08-25T12:19:02.384Z,7196.00
2022-08-25T12:20:02.532Z,7252.00
2022-08-25T12:21:02.189Z,7712.00
2022-08-25T12:22:03.514Z,7056.00